createdAt,value
2019-03-22T00:00:21.443Z,997.88
2019-03-22T00:01:21.416Z,997.84
2019-03-22T00:02:31.635Z,997.84
2019-03-22T00:03:21.393Z,997.86
2019-03-22T00:04:21.382Z,997.88
2019-03-22T00:05:21.370Z,997.91
2019-03-22T00:06:21.434Z,997.92
2019-03-22T00:07:21.348Z,997.96
2019-03-22T00:08:21.339Z,997.94
2019-03-22T00:09:21.327Z,997.96
2019-03-22T00:10:21.831Z,997.98
2019-03-22T00:11:21.314Z,998.00
2019-03-22T00:12:21.302Z,998.05
2019-03-22T00:13:21.283Z,998.05
2019-03-22T00:14:21.272Z,998.02
2019-03-22T00:15:21.260Z,998.11
2019-03-22T00:16:21.266Z,998.04
2019-03-22T00:17:21.238Z,998.08
2019-03-22T00:18:21.233Z,998.13
2019-03-22T00:19:21.218Z,998.09
2019-03-22T00:20:21.206Z,998.08
2019-03-22T00:21:21.196Z,998.11
2019-03-22T00:22:21.192Z,998.24
2019-03-22T00:23:21.173Z,998.11
2019-03-22T00:24:21.163Z,998.11
2019-03-22T00:25:21.152Z,998.11
2019-03-22T00:26:21.153Z,998.09
2019-03-22T00:27:21.182Z,998.07
2019-03-22T00:28:21.119Z,998.13
2019-03-22T00:29:21.108Z,998.13
2019-03-22T00:30:21.103Z,998.19
2019-03-22T00:31:21.089Z,998.13
2019-03-22T00:32:21.075Z,998.06
2019-03-22T00:33:33.417Z,998.10
2019-03-22T00:34:21.054Z,998.05
2019-03-22T00:35:21.047Z,998.03
2019-03-22T00:36:21.034Z,998.05
2019-03-22T00:37:21.021Z,998.06
2019-03-22T00:38:21.011Z,998.08
2019-03-22T00:39:21.035Z,998.02
2019-03-22T00:40:20.988Z,998.06
2019-03-22T00:41:20.978Z,998.11
2019-03-22T00:42:20.967Z,998.10
2019-03-22T00:43:20.972Z,998.15
2019-03-22T00:44:20.944Z,998.20
2019-03-22T00:45:20.971Z,998.19
2019-03-22T00:46:20.922Z,998.19
2019-03-22T00:47:20.912Z,998.24
2019-03-22T00:48:20.901Z,998.21
2019-03-22T00:49:20.896Z,998.22
2019-03-22T00:50:20.885Z,998.29
2019-03-22T00:51:20.898Z,998.32
2019-03-22T00:52:20.860Z,998.35
2019-03-22T00:53:20.850Z,998.43
2019-03-22T00:54:20.843Z,998.41
2019-03-22T00:55:20.825Z,998.39
2019-03-22T00:56:20.838Z,998.37
2019-03-22T00:57:28.555Z,998.45
2019-03-22T00:58:21.793Z,998.40
2019-03-22T00:59:20.784Z,998.43
2019-03-22T01:00:20.776Z,998.42
2019-03-22T01:01:20.769Z,998.35
2019-03-22T01:02:20.763Z,998.43
2019-03-22T01:03:20.793Z,998.43
2019-03-22T01:04:32.616Z,998.41
2019-03-22T01:05:20.723Z,998.45
2019-03-22T01:06:20.709Z,998.42
2019-03-22T01:07:20.708Z,998.42
2019-03-22T01:08:20.725Z,998.42
2019-03-22T01:09:20.675Z,998.39
2019-03-22T01:10:20.671Z,998.38
2019-03-22T01:11:20.652Z,998.40
2019-03-22T01:12:20.647Z,998.42
2019-03-22T01:13:20.635Z,998.49
2019-03-22T01:14:20.641Z,998.50
2019-03-22T01:15:20.607Z,998.56
2019-03-22T01:16:20.602Z,998.60
2019-03-22T01:17:20.591Z,998.57
2019-03-22T01:18:20.576Z,998.58
2019-03-22T01:19:20.564Z,998.59
2019-03-22T01:20:20.591Z,998.62
2019-03-22T01:21:20.549Z,998.69
2019-03-22T01:22:20.535Z,998.65
2019-03-22T01:23:20.527Z,998.75
2019-03-22T01:24:20.509Z,998.64
2019-03-22T01:25:20.510Z,998.72
2019-03-22T01:26:20.504Z,998.74
2019-03-22T01:27:20.484Z,998.74
2019-03-22T01:28:20.468Z,998.73
2019-03-22T01:29:20.458Z,998.85
2019-03-22T01:30:20.447Z,998.80
2019-03-22T01:31:20.438Z,998.84
2019-03-22T01:32:20.433Z,998.86
2019-03-22T01:33:20.419Z,998.78
2019-03-22T01:34:20.405Z,998.89
2019-03-22T01:35:32.523Z,998.85
2019-03-22T01:36:20.381Z,998.94
2019-03-22T01:37:20.395Z,998.91
2019-03-22T01:38:20.361Z,999.00
2019-03-22T01:39:20.350Z,998.98
2019-03-22T01:40:20.339Z,998.99
2019-03-22T01:41:20.331Z,998.99
2019-03-22T01:42:20.316Z,999.00
2019-03-22T01:43:20.338Z,999.05
2019-03-22T01:44:20.293Z,999.10
2019-03-22T01:45:20.282Z,999.08
2019-03-22T01:46:20.276Z,999.17
2019-03-22T01:47:20.258Z,999.12
2019-03-22T01:48:20.255Z,999.18
2019-03-22T01:49:20.273Z,999.14
2019-03-22T01:50:20.228Z,999.22
2019-03-22T01:51:20.218Z,999.20
2019-03-22T01:52:20.202Z,999.21
2019-03-22T01:53:20.249Z,999.21
2019-03-22T01:54:20.184Z,999.20
2019-03-22T01:55:20.208Z,999.22
2019-03-22T01:56:20.161Z,999.22
2019-03-22T01:57:20.152Z,999.21
2019-03-22T01:58:20.141Z,999.29
2019-03-22T01:59:20.125Z,999.28
2019-03-22T02:00:20.121Z,999.31
2019-03-22T02:01:20.142Z,999.34
2019-03-22T02:02:20.095Z,999.32
2019-03-22T02:03:20.089Z,999.28
2019-03-22T02:04:20.078Z,999.26
2019-03-22T02:05:20.060Z,999.24
2019-03-22T02:06:30.014Z,999.28
2019-03-22T02:07:20.036Z,999.33
2019-03-22T02:08:20.032Z,999.21
2019-03-22T02:09:20.014Z,999.25
2019-03-22T02:10:20.003Z,999.26
2019-03-22T02:11:19.992Z,999.31
2019-03-22T02:12:20.018Z,999.31
2019-03-22T02:13:20.957Z,999.25
2019-03-22T02:14:19.958Z,999.29
2019-03-22T02:15:19.953Z,999.40
2019-03-22T02:16:19.940Z,999.30
2019-03-22T02:17:19.931Z,999.28
2019-03-22T02:18:19.922Z,999.33
2019-03-22T02:19:19.907Z,999.28
2019-03-22T02:20:19.900Z,999.36
2019-03-22T02:21:19.888Z,999.32
2019-03-22T02:22:19.872Z,999.32
2019-03-22T02:23:19.938Z,999.28
2019-03-22T02:24:19.852Z,999.38
2019-03-22T02:25:19.844Z,999.48
2019-03-22T02:26:19.828Z,999.38
2019-03-22T02:27:19.816Z,999.44
2019-03-22T02:28:19.806Z,999.58
2019-03-22T02:29:19.834Z,999.46
2019-03-22T02:30:19.788Z,999.57
2019-03-22T02:31:19.779Z,999.57
2019-03-22T02:32:19.774Z,999.54
2019-03-22T02:33:19.756Z,999.53
2019-03-22T02:34:19.753Z,999.59
2019-03-22T02:35:28.903Z,999.52
2019-03-22T02:36:20.728Z,999.62
2019-03-22T02:37:31.560Z,999.58
2019-03-22T02:38:19.703Z,999.59
2019-03-22T02:39:19.749Z,999.57
2019-03-22T02:40:19.683Z,999.57
2019-03-22T02:41:19.700Z,999.61
2019-03-22T02:42:19.657Z,999.59
2019-03-22T02:43:19.647Z,999.58
2019-03-22T02:44:19.634Z,999.66
2019-03-22T02:45:19.620Z,999.67
2019-03-22T02:46:19.615Z,999.79
2019-03-22T02:47:19.606Z,999.76
2019-03-22T02:48:19.587Z,999.72
2019-03-22T02:49:19.578Z,999.73
2019-03-22T02:50:20.404Z,999.72
2019-03-22T02:51:19.556Z,999.77
2019-03-22T02:52:19.585Z,999.78
2019-03-22T02:53:19.537Z,999.71
2019-03-22T02:54:19.522Z,999.82
2019-03-22T02:55:19.520Z,999.76
2019-03-22T02:56:19.499Z,999.73
2019-03-22T02:57:19.495Z,999.78
2019-03-22T02:58:21.204Z,999.81
2019-03-22T02:59:19.464Z,999.79
2019-03-22T03:00:19.460Z,999.79
2019-03-22T03:01:19.446Z,999.77
2019-03-22T03:02:19.433Z,999.87
2019-03-22T03:03:19.430Z,999.81
2019-03-22T03:04:19.410Z,999.87
2019-03-22T03:05:19.402Z,999.85
2019-03-22T03:06:19.395Z,999.80
2019-03-22T03:07:19.383Z,999.81
2019-03-22T03:08:30.106Z,999.78
2019-03-22T03:09:19.356Z,999.79
2019-03-22T03:10:19.350Z,999.94
2019-03-22T03:11:19.337Z,999.95
2019-03-22T03:12:19.330Z,999.90
2019-03-22T03:13:19.330Z,999.87
2019-03-22T03:14:19.335Z,999.95
2019-03-22T03:15:19.301Z,1000.02
2019-03-22T03:16:19.288Z,1000.08
2019-03-22T03:17:19.266Z,999.96
2019-03-22T03:18:19.256Z,1000.04
2019-03-22T03:19:19.249Z,1000.08
2019-03-22T03:20:19.375Z,1000.13
2019-03-22T03:21:19.222Z,1000.17
2019-03-22T03:22:19.220Z,1000.18
2019-03-22T03:23:19.200Z,1000.19
2019-03-22T03:24:19.200Z,1000.22
2019-03-22T03:25:19.193Z,1000.21
2019-03-22T03:26:19.166Z,1000.21
2019-03-22T03:27:19.185Z,1000.29
2019-03-22T03:28:19.150Z,1000.31
2019-03-22T03:29:19.132Z,1000.31
2019-03-22T03:30:19.141Z,1000.34
2019-03-22T03:31:19.129Z,1000.27
2019-03-22T03:32:19.108Z,1000.30
2019-03-22T03:33:19.119Z,1000.34
2019-03-22T03:34:19.082Z,1000.39
2019-03-22T03:35:19.102Z,1000.43
2019-03-22T03:36:19.062Z,1000.42
2019-03-22T03:37:19.070Z,1000.47
2019-03-22T03:38:19.033Z,1000.57
2019-03-22T03:39:31.157Z,1000.62
2019-03-22T03:40:19.026Z,1000.51
2019-03-22T03:41:19.018Z,1000.45
2019-03-22T03:42:18.989Z,1000.56
2019-03-22T03:43:19.016Z,1000.51
2019-03-22T03:44:18.970Z,1000.61
2019-03-22T03:45:18.963Z,1000.58
2019-03-22T03:46:18.947Z,1000.61
2019-03-22T03:47:18.938Z,1000.66
2019-03-22T03:48:18.923Z,1000.58
2019-03-22T03:49:18.951Z,1000.68
2019-03-22T03:50:18.900Z,1000.64
2019-03-22T03:51:18.895Z,1000.74
2019-03-22T03:52:18.884Z,1000.78
2019-03-22T03:53:18.869Z,1000.78
2019-03-22T03:54:18.859Z,1000.81
2019-03-22T03:55:18.880Z,1000.82
2019-03-22T03:56:18.836Z,1000.84
2019-03-22T03:57:18.822Z,1000.88
2019-03-22T03:58:18.824Z,1000.80
2019-03-22T03:59:18.809Z,1000.92
2019-03-22T04:00:18.793Z,1000.94
2019-03-22T04:01:18.794Z,1000.87
2019-03-22T04:02:18.780Z,1000.94
2019-03-22T04:03:18.759Z,1000.93
2019-03-22T04:04:18.745Z,1001.02
2019-03-22T04:05:18.737Z,1001.01
2019-03-22T04:06:18.736Z,1001.00
2019-03-22T04:07:18.722Z,1001.03
2019-03-22T04:08:18.705Z,1001.01
2019-03-22T04:09:18.696Z,1001.00
2019-03-22T04:10:29.177Z,1001.09
2019-03-22T04:11:18.673Z,1001.05
2019-03-22T04:12:18.679Z,1001.10
2019-03-22T04:13:18.651Z,1000.95
2019-03-22T04:14:18.673Z,1001.05
2019-03-22T04:15:18.623Z,1001.04
2019-03-22T04:16:18.619Z,1001.00
2019-03-22T04:17:18.610Z,1001.06
2019-03-22T04:18:18.636Z,1001.12
2019-03-22T04:19:18.587Z,1001.14
2019-03-22T04:20:18.577Z,1001.15
2019-03-22T04:21:18.566Z,1001.15
2019-03-22T04:22:18.546Z,1001.28
2019-03-22T04:23:18.535Z,1001.22
2019-03-22T04:24:18.535Z,1001.16
2019-03-22T04:25:18.529Z,1001.36
2019-03-22T04:26:18.504Z,1001.28
2019-03-22T04:27:18.497Z,1001.31
2019-03-22T04:28:18.524Z,1001.41
2019-03-22T04:29:18.468Z,1001.32
2019-03-22T04:30:18.462Z,1001.46
2019-03-22T04:31:18.450Z,1001.34
2019-03-22T04:32:18.438Z,1001.36
2019-03-22T04:33:18.427Z,1001.38
2019-03-22T04:34:18.455Z,1001.47
2019-03-22T04:35:18.431Z,1001.39
2019-03-22T04:36:18.395Z,1001.44
2019-03-22T04:37:18.384Z,1001.45
2019-03-22T04:38:18.370Z,1001.46
2019-03-22T04:39:18.362Z,1001.52
2019-03-22T04:40:18.382Z,1001.60
2019-03-22T04:41:28.579Z,1001.58
2019-03-22T04:42:18.332Z,1001.60
2019-03-22T04:43:18.319Z,1001.61
2019-03-22T04:44:18.310Z,1001.60
2019-03-22T04:45:18.296Z,1001.58
2019-03-22T04:46:18.322Z,1001.64
2019-03-22T04:47:18.273Z,1001.64
2019-03-22T04:48:18.262Z,1001.63
2019-03-22T04:49:18.252Z,1001.70
2019-03-22T04:50:18.247Z,1001.81
2019-03-22T04:51:18.233Z,1001.89
2019-03-22T04:52:18.225Z,1001.71
2019-03-22T04:53:18.214Z,1001.96
2019-03-22T04:54:18.198Z,1001.78
2019-03-22T04:55:18.184Z,1001.83
2019-03-22T04:56:18.183Z,1001.83
2019-03-22T04:57:18.170Z,1001.72
2019-03-22T04:58:18.150Z,1001.74
2019-03-22T04:59:19.546Z,1001.77
2019-03-22T05:00:18.131Z,1001.84
2019-03-22T05:01:18.119Z,1001.83
2019-03-22T05:02:18.146Z,1001.75
2019-03-22T05:03:18.095Z,1001.89
2019-03-22T05:04:18.090Z,1001.86
2019-03-22T05:05:18.079Z,1002.00
2019-03-22T05:06:18.069Z,1001.92
2019-03-22T05:07:18.057Z,1001.98
2019-03-22T05:08:18.050Z,1001.91
2019-03-22T05:09:18.031Z,1001.97
2019-03-22T05:10:18.025Z,1001.90
2019-03-22T05:11:18.011Z,1001.96
2019-03-22T05:12:28.763Z,1001.92
2019-03-22T05:13:17.989Z,1002.09
2019-03-22T05:14:17.978Z,1001.92
2019-03-22T05:15:17.964Z,1001.94
2019-03-22T05:16:17.963Z,1001.97
2019-03-22T05:17:17.972Z,1001.98
2019-03-22T05:18:17.967Z,1001.96
2019-03-22T05:19:17.924Z,1001.93
2019-03-22T05:20:17.912Z,1001.90
2019-03-22T05:21:17.894Z,1001.91
2019-03-22T05:22:17.885Z,1001.94
2019-03-22T05:23:17.880Z,1001.94
2019-03-22T05:24:18.415Z,1001.96
2019-03-22T05:25:17.856Z,1001.90
2019-03-22T05:26:17.848Z,1001.93
2019-03-22T05:27:17.831Z,1001.99
2019-03-22T05:28:17.823Z,1002.07
2019-03-22T05:29:17.806Z,1001.99
2019-03-22T05:30:17.839Z,1001.94
2019-03-22T05:31:17.786Z,1001.96
2019-03-22T05:32:17.776Z,1002.05
2019-03-22T05:33:17.762Z,1002.14
2019-03-22T05:34:17.755Z,1001.96
2019-03-22T05:35:17.739Z,1002.13
2019-03-22T05:36:17.764Z,1002.26
2019-03-22T05:37:17.723Z,1002.12
2019-03-22T05:38:17.707Z,1002.17
2019-03-22T05:39:17.695Z,1002.15
2019-03-22T05:40:17.683Z,1002.12
2019-03-22T05:41:17.672Z,1002.20
2019-03-22T05:42:17.707Z,1002.30
2019-03-22T05:43:27.895Z,1002.27
2019-03-22T05:44:17.646Z,1002.28
2019-03-22T05:45:17.626Z,1002.32
2019-03-22T05:46:17.618Z,1002.32
2019-03-22T05:47:17.608Z,1002.34
2019-03-22T05:48:17.601Z,1002.42
2019-03-22T05:49:17.587Z,1002.39
2019-03-22T05:50:17.571Z,1002.36
2019-03-22T05:51:17.572Z,1002.45
2019-03-22T05:52:17.553Z,1002.38
2019-03-22T05:53:17.563Z,1002.48
2019-03-22T05:54:17.532Z,1002.43
2019-03-22T05:55:17.523Z,1002.44
2019-03-22T05:56:17.507Z,1002.40
2019-03-22T05:57:17.495Z,1002.53
2019-03-22T05:58:17.485Z,1002.48
2019-03-22T05:59:17.486Z,1002.56
2019-03-22T06:00:17.465Z,1002.48
2019-03-22T06:01:17.453Z,1002.53
2019-03-22T06:02:17.442Z,1002.50
2019-03-22T06:03:17.428Z,1002.50
2019-03-22T06:04:17.427Z,1002.60
2019-03-22T06:05:17.409Z,1002.63
2019-03-22T06:06:17.398Z,1002.60
2019-03-22T06:07:17.383Z,1002.55
2019-03-22T06:08:17.371Z,1002.45
2019-03-22T06:09:17.373Z,1002.60
2019-03-22T06:10:17.392Z,1002.69
2019-03-22T06:11:17.343Z,1002.60
2019-03-22T06:12:17.329Z,1002.65
2019-03-22T06:13:17.315Z,1002.62
2019-03-22T06:14:27.828Z,1002.68
2019-03-22T06:15:17.298Z,1002.56
2019-03-22T06:16:17.294Z,1002.67
2019-03-22T06:17:17.277Z,1002.77
2019-03-22T06:18:17.261Z,1002.76
2019-03-22T06:19:17.247Z,1002.79
2019-03-22T06:20:17.241Z,1002.86
2019-03-22T06:21:17.267Z,1002.78
2019-03-22T06:22:17.216Z,1002.95
2019-03-22T06:23:17.205Z,1002.85
2019-03-22T06:24:17.193Z,1002.88
2019-03-22T06:25:17.180Z,1002.88
2019-03-22T06:26:17.176Z,1002.93
2019-03-22T06:27:17.169Z,1002.88
2019-03-22T06:28:17.148Z,1002.94
2019-03-22T06:29:17.140Z,1002.93
2019-03-22T06:30:17.133Z,1003.03
2019-03-22T06:31:17.114Z,1002.94
2019-03-22T06:32:17.140Z,1002.87
2019-03-22T06:33:17.097Z,1002.96
2019-03-22T06:34:17.083Z,1002.99
2019-03-22T06:35:17.069Z,1003.06
2019-03-22T06:36:17.060Z,1003.10
2019-03-22T06:37:17.049Z,1003.03
2019-03-22T06:38:17.063Z,1003.14
2019-03-22T06:39:17.025Z,1003.18
2019-03-22T06:40:17.056Z,1003.26
2019-03-22T06:41:17.002Z,1003.23
2019-03-22T06:42:16.994Z,1003.18
2019-03-22T06:43:16.982Z,1003.17
2019-03-22T06:44:16.997Z,1003.14
2019-03-22T06:45:30.127Z,1003.22
2019-03-22T06:46:16.948Z,1003.26
2019-03-22T06:47:16.940Z,1003.25
2019-03-22T06:48:16.935Z,1003.24
2019-03-22T06:49:16.915Z,1003.25
2019-03-22T06:50:16.913Z,1003.24
2019-03-22T06:51:16.897Z,1003.33
2019-03-22T06:52:16.885Z,1003.31
2019-03-22T06:53:16.879Z,1003.41
2019-03-22T06:54:16.860Z,1003.42
2019-03-22T06:55:16.886Z,1003.51
2019-03-22T06:56:16.841Z,1003.41
2019-03-22T06:57:16.822Z,1003.51
2019-03-22T06:58:16.816Z,1003.40
2019-03-22T06:59:16.801Z,1003.35
2019-03-22T07:00:16.802Z,1003.40
2019-03-22T07:01:16.793Z,1003.38
2019-03-22T07:02:16.773Z,1003.47
2019-03-22T07:03:16.756Z,1003.49
2019-03-22T07:04:16.746Z,1003.43
2019-03-22T07:05:16.742Z,1003.46
2019-03-22T07:06:16.741Z,1003.43
2019-03-22T07:07:16.719Z,1003.47
2019-03-22T07:08:16.706Z,1003.48
2019-03-22T07:09:16.690Z,1003.52
2019-03-22T07:10:16.686Z,1003.58
2019-03-22T07:11:16.675Z,1003.60
2019-03-22T07:12:16.893Z,1003.59
2019-03-22T07:13:16.650Z,1003.58
2019-03-22T07:14:16.638Z,1003.60
2019-03-22T07:15:16.627Z,1003.59
2019-03-22T07:16:26.617Z,1003.61
2019-03-22T07:17:16.614Z,1003.63
2019-03-22T07:18:16.633Z,1003.64
2019-03-22T07:19:16.579Z,1003.65
2019-03-22T07:20:16.568Z,1003.64
2019-03-22T07:21:16.563Z,1003.69
2019-03-22T07:22:16.553Z,1003.71
2019-03-22T07:23:16.542Z,1003.81
2019-03-22T07:24:16.570Z,1003.82
2019-03-22T07:25:16.513Z,1003.80
2019-03-22T07:26:16.504Z,1003.84
2019-03-22T07:27:16.492Z,1003.88
2019-03-22T07:28:16.482Z,1003.82
2019-03-22T07:29:16.467Z,1003.86
2019-03-22T07:30:18.995Z,1003.89
2019-03-22T07:31:16.474Z,1004.03
2019-03-22T07:32:16.435Z,1004.03
2019-03-22T07:33:16.424Z,1004.05
2019-03-22T07:34:16.419Z,1004.08
2019-03-22T07:35:16.418Z,1004.08
2019-03-22T07:36:16.406Z,1004.14
2019-03-22T07:37:16.385Z,1004.04
2019-03-22T07:38:16.377Z,1004.13
2019-03-22T07:39:16.360Z,1004.04
2019-03-22T07:40:16.350Z,1004.16
2019-03-22T07:41:16.376Z,1004.23
2019-03-22T07:42:17.580Z,1004.16
2019-03-22T07:43:16.318Z,1004.18
2019-03-22T07:44:16.318Z,1004.24
2019-03-22T07:45:16.296Z,1004.21
2019-03-22T07:46:16.285Z,1004.25
2019-03-22T07:47:26.505Z,1004.24
2019-03-22T07:48:16.263Z,1004.38
2019-03-22T07:49:16.257Z,1004.33
2019-03-22T07:50:16.238Z,1004.31
2019-03-22T07:51:16.231Z,1004.36
2019-03-22T07:52:16.221Z,1004.44
2019-03-22T07:53:16.215Z,1004.49
2019-03-22T07:54:16.197Z,1004.50
2019-03-22T07:55:16.186Z,1004.52
2019-03-22T07:56:16.175Z,1004.53
2019-03-22T07:57:16.163Z,1004.52
2019-03-22T07:58:16.188Z,1004.56
2019-03-22T07:59:16.143Z,1004.59
2019-03-22T08:00:16.128Z,1004.61
2019-03-22T08:01:16.118Z,1004.60
2019-03-22T08:02:16.106Z,1004.62
2019-03-22T08:03:16.093Z,1004.60
2019-03-22T08:04:16.101Z,1004.67
2019-03-22T08:05:16.075Z,1004.68
2019-03-22T08:06:16.071Z,1004.78
2019-03-22T08:07:16.059Z,1004.68
2019-03-22T08:08:16.036Z,1004.77
2019-03-22T08:09:16.026Z,1004.67
2019-03-22T08:10:16.053Z,1004.75
2019-03-22T08:11:16.009Z,1004.77
2019-03-22T08:12:15.996Z,1004.73
2019-03-22T08:13:15.982Z,1004.66
2019-03-22T08:14:16.555Z,1004.77
2019-03-22T08:15:15.965Z,1004.82
2019-03-22T08:16:15.969Z,1004.90
2019-03-22T08:17:15.941Z,1004.92
2019-03-22T08:18:28.235Z,1004.92
2019-03-22T08:19:15.917Z,1004.95
2019-03-22T08:20:15.909Z,1004.95
2019-03-22T08:21:15.891Z,1004.91
2019-03-22T08:22:15.931Z,1004.97
2019-03-22T08:23:15.874Z,1005.10
2019-03-22T08:24:15.862Z,1005.10
2019-03-22T08:25:15.886Z,1004.96
2019-03-22T08:26:15.839Z,1005.18
2019-03-22T08:27:15.865Z,1005.13
2019-03-22T08:28:15.895Z,1005.32
2019-03-22T08:29:15.807Z,1005.24
2019-03-22T08:30:15.904Z,1005.32
2019-03-22T08:31:15.786Z,1005.27
2019-03-22T08:32:15.770Z,1005.26
2019-03-22T08:33:15.782Z,1005.32
2019-03-22T08:34:15.759Z,1005.31
2019-03-22T08:35:15.761Z,1005.27
2019-03-22T08:36:15.763Z,1005.27
2019-03-22T08:37:15.716Z,1005.35
2019-03-22T08:38:17.533Z,1005.28
2019-03-22T08:39:15.742Z,1005.36
2019-03-22T08:40:15.680Z,1005.30
2019-03-22T08:41:15.691Z,1005.40
2019-03-22T08:42:15.669Z,1005.39
2019-03-22T08:43:15.659Z,1005.48
2019-03-22T08:44:15.645Z,1005.57
2019-03-22T08:45:15.633Z,1005.55
2019-03-22T08:46:15.647Z,1005.60
2019-03-22T08:47:15.635Z,1005.58
2019-03-22T08:48:15.601Z,1005.56
2019-03-22T08:49:26.754Z,1005.53
2019-03-22T08:50:15.616Z,1005.58
2019-03-22T08:51:15.564Z,1005.60
2019-03-22T08:52:15.552Z,1005.74
2019-03-22T08:53:15.545Z,1005.68
2019-03-22T08:54:15.528Z,1005.70
2019-03-22T08:55:15.555Z,1005.76
2019-03-22T08:56:15.516Z,1005.70
2019-03-22T08:57:15.510Z,1005.71
2019-03-22T08:58:18.287Z,1005.85
2019-03-22T08:59:15.487Z,1005.82
2019-03-22T09:00:15.464Z,1005.78
2019-03-22T09:01:15.463Z,1005.90
2019-03-22T09:02:15.448Z,1005.94
2019-03-22T09:03:15.441Z,1005.97
2019-03-22T09:04:15.424Z,1006.01
2019-03-22T09:05:15.422Z,1006.00
2019-03-22T09:06:15.424Z,1005.96
2019-03-22T09:07:15.394Z,1006.00
2019-03-22T09:08:16.215Z,1005.99
2019-03-22T09:09:15.377Z,1005.87
2019-03-22T09:10:15.405Z,1006.02
2019-03-22T09:11:18.029Z,1006.09
2019-03-22T09:12:15.372Z,1005.99
2019-03-22T09:13:15.326Z,1006.02
2019-03-22T09:14:15.308Z,1006.10
2019-03-22T09:15:15.338Z,1006.08
2019-03-22T09:16:15.289Z,1006.07
2019-03-22T09:17:15.285Z,1006.15
2019-03-22T09:18:15.607Z,1006.11
2019-03-22T09:19:15.256Z,1006.13
2019-03-22T09:20:26.125Z,1006.16
2019-03-22T09:21:15.261Z,1006.25
2019-03-22T09:22:15.223Z,1006.32
2019-03-22T09:23:15.252Z,1006.33
2019-03-22T09:24:15.230Z,1006.37
2019-03-22T09:25:15.191Z,1006.36
2019-03-22T09:26:15.193Z,1006.29
2019-03-22T09:27:15.224Z,1006.37
2019-03-22T09:28:15.156Z,1006.43
2019-03-22T09:29:15.167Z,1006.42
2019-03-22T09:30:15.150Z,1006.46
2019-03-22T09:31:15.128Z,1006.52
2019-03-22T09:32:15.158Z,1006.57
2019-03-22T09:33:15.218Z,1006.57
2019-03-22T09:34:15.096Z,1006.59
2019-03-22T09:35:15.103Z,1006.54
2019-03-22T09:36:15.115Z,1006.54
2019-03-22T09:37:15.092Z,1006.63
2019-03-22T09:38:15.087Z,1006.56
2019-03-22T09:39:15.041Z,1006.58
2019-03-22T09:40:15.036Z,1006.70
2019-03-22T09:41:15.073Z,1006.77
2019-03-22T09:42:15.030Z,1006.67
2019-03-22T09:43:15.000Z,1006.84
2019-03-22T09:44:15.001Z,1006.77
2019-03-22T09:45:14.986Z,1006.82
2019-03-22T09:46:14.967Z,1006.83
2019-03-22T09:47:16.514Z,1006.86
2019-03-22T09:48:14.985Z,1006.92
2019-03-22T09:49:14.934Z,1006.94
2019-03-22T09:50:14.968Z,1007.01
2019-03-22T09:51:25.581Z,1006.99
2019-03-22T09:52:14.900Z,1007.02
2019-03-22T09:53:14.991Z,1006.99
2019-03-22T09:54:14.872Z,1007.08
2019-03-22T09:55:14.872Z,1007.18
2019-03-22T09:56:14.857Z,1007.05
2019-03-22T09:57:14.864Z,1007.14
2019-03-22T09:58:14.848Z,1007.24
2019-03-22T09:59:14.879Z,1007.21
2019-03-22T10:00:14.813Z,1007.27
2019-03-22T10:01:23.659Z,1007.23
2019-03-22T10:02:15.818Z,1007.31
2019-03-22T10:03:14.778Z,1007.25
2019-03-22T10:04:14.800Z,1007.32
2019-03-22T10:05:14.764Z,1007.34
2019-03-22T10:06:14.746Z,1007.42
2019-03-22T10:07:14.759Z,1007.36
2019-03-22T10:08:14.754Z,1007.41
2019-03-22T10:09:14.711Z,1007.48
2019-03-22T10:10:14.746Z,1007.50
2019-03-22T10:11:14.740Z,1007.49
2019-03-22T10:12:14.740Z,1007.58
2019-03-22T10:13:14.693Z,1007.56
2019-03-22T10:14:14.704Z,1007.58
2019-03-22T10:15:14.690Z,1007.59
2019-03-22T10:16:14.663Z,1007.70
2019-03-22T10:17:14.634Z,1007.73
2019-03-22T10:18:14.645Z,1007.75
2019-03-22T10:19:14.616Z,1007.72
2019-03-22T10:20:14.595Z,1007.83
2019-03-22T10:21:22.479Z,1007.74
2019-03-22T10:23:27.494Z,1007.71
2019-03-22T10:24:27.478Z,1007.75
2019-03-22T10:25:27.480Z,1007.76
2019-03-22T10:26:27.518Z,1007.80
2019-03-22T10:27:27.440Z,1007.82
2019-03-22T10:28:27.428Z,1007.81
2019-03-22T10:29:27.444Z,1007.86
2019-03-22T10:30:27.470Z,1007.92
2019-03-22T10:31:37.021Z,1007.90
2019-03-22T10:32:28.464Z,1007.88
2019-03-22T10:33:27.440Z,1007.92
2019-03-22T10:34:27.409Z,1008.01
2019-03-22T10:35:27.356Z,1008.05
2019-03-22T10:36:28.088Z,1008.09
2019-03-22T10:37:27.352Z,1008.15
2019-03-22T10:38:31.851Z,1008.13
2019-03-22T10:39:27.312Z,1008.11
2019-03-22T10:40:27.347Z,1008.14
2019-03-22T10:41:27.291Z,1008.17
2019-03-22T10:42:27.347Z,1008.25
2019-03-22T10:43:27.447Z,1008.25
2019-03-22T10:44:27.300Z,1008.23
2019-03-22T10:45:27.279Z,1008.32
2019-03-22T10:46:27.309Z,1008.31
2019-03-22T10:47:27.225Z,1008.27
2019-03-22T10:48:27.265Z,1008.27
2019-03-22T10:49:27.232Z,1008.26
2019-03-22T10:50:27.182Z,1008.17
2019-03-22T10:51:27.180Z,1008.32
2019-03-22T10:52:27.194Z,1008.30
2019-03-22T10:53:34.241Z,1008.29
2019-03-22T10:54:27.162Z,1008.34
2019-03-22T10:55:30.302Z,1008.35
2019-03-22T10:56:27.115Z,1008.25
2019-03-22T10:57:27.103Z,1008.44
2019-03-22T10:58:27.096Z,1008.38
2019-03-22T10:59:27.084Z,1008.48
2019-03-22T11:00:27.075Z,1008.48
2019-03-22T11:01:27.098Z,1008.53
2019-03-22T11:02:27.055Z,1008.52
2019-03-22T11:03:27.086Z,1008.62
2019-03-22T11:04:27.033Z,1008.70
2019-03-22T11:05:27.023Z,1008.60
2019-03-22T11:06:27.039Z,1008.69
2019-03-22T11:07:27.014Z,1008.62
2019-03-22T11:08:26.999Z,1008.64
2019-03-22T11:09:26.972Z,1008.70
2019-03-22T11:10:26.964Z,1008.73
2019-03-22T11:11:26.949Z,1008.76
2019-03-22T11:12:26.946Z,1008.68
2019-03-22T11:13:26.935Z,1008.87
2019-03-22T11:14:26.923Z,1008.88
2019-03-22T11:15:26.910Z,1008.76
2019-03-22T11:16:26.895Z,1008.79
2019-03-22T11:17:26.883Z,1008.77
2019-03-22T11:18:36.798Z,1008.85
2019-03-22T11:19:27.864Z,1008.86
2019-03-22T11:20:26.850Z,1008.86
2019-03-22T11:21:26.843Z,1008.88
2019-03-22T11:22:26.829Z,1009.00
2019-03-22T11:23:26.824Z,1008.88
2019-03-22T11:24:37.136Z,1008.97
2019-03-22T11:25:26.806Z,1008.91
2019-03-22T11:26:26.790Z,1008.97
2019-03-22T11:27:26.779Z,1008.90
2019-03-22T11:28:26.766Z,1008.93
2019-03-22T11:29:26.830Z,1009.06
2019-03-22T11:30:26.744Z,1009.09
2019-03-22T11:31:28.517Z,1009.11
2019-03-22T11:32:26.716Z,1009.02
2019-03-22T11:33:26.706Z,1009.04
2019-03-22T11:34:26.694Z,1009.19
2019-03-22T11:35:26.719Z,1009.11
2019-03-22T11:36:26.680Z,1009.19
2019-03-22T11:37:26.666Z,1009.16
2019-03-22T11:38:26.650Z,1009.22
2019-03-22T11:39:26.643Z,1009.20
2019-03-22T11:40:26.633Z,1009.20
2019-03-22T11:41:26.646Z,1009.27
2019-03-22T11:42:26.607Z,1009.36
2019-03-22T11:43:26.597Z,1009.34
2019-03-22T11:44:26.585Z,1009.36
2019-03-22T11:45:26.572Z,1009.30
2019-03-22T11:46:26.566Z,1009.38
2019-03-22T11:47:26.595Z,1009.32
2019-03-22T11:48:26.539Z,1009.41
2019-03-22T11:49:26.532Z,1009.40
2019-03-22T11:50:26.518Z,1009.51
2019-03-22T11:51:26.513Z,1009.47
2019-03-22T11:52:26.496Z,1009.61
2019-03-22T11:53:26.496Z,1009.53
2019-03-22T11:54:26.479Z,1009.56
2019-03-22T11:55:36.655Z,1009.69
2019-03-22T11:56:26.453Z,1009.70
2019-03-22T11:57:26.447Z,1009.69
2019-03-22T11:58:26.474Z,1009.54
2019-03-22T11:59:26.425Z,1009.74
2019-03-22T12:00:26.410Z,1009.67
2019-03-22T12:01:26.397Z,1009.74
2019-03-22T12:02:26.391Z,1009.67
2019-03-22T12:03:26.380Z,1009.68
2019-03-22T12:04:26.387Z,1009.79
2019-03-22T12:05:26.364Z,1009.70
2019-03-22T12:06:27.421Z,1009.81
2019-03-22T12:07:26.332Z,1009.71
2019-03-22T12:08:26.326Z,1009.84
2019-03-22T12:09:26.308Z,1009.90
2019-03-22T12:10:26.345Z,1009.88
2019-03-22T12:11:26.291Z,1009.92
2019-03-22T12:12:26.286Z,1009.88